»·PEaware :: DAL1259 KORF-KATL

DAL1259 :: KORF-KATL

FLIGHT INFORMATION

Flight Status: Arrived
Operator:
Delta Air Lines
More flights by this operator :: More flights under this callsign
Pilot: Mitchell L. (19304)
Aircraft: Unknown
(E195)
More flights by this aircraft type
Origin: KORF Norfolk Intl
United States
Destination: KATL Hartsfield-Jackson Atlanta
United States
More flights between these airports :: More routes between these airports
Route: FKN J207 RDU J209 GRD WINNG OZZZI1
File this flight plan on PilotEdge
Remarks:
Altitude:
(Current/Filed)
34,000ft
Speed:
(Current/Filed)
475kts
Departed: 04-Aug-18 05:46 PM
Arrived: 04-Aug-18 07:06 PM
Distance/Time
Traveled:
448nm/1:20
Distance/Time
To Go:
Arrived

Flight Plot

Page will automatically refresh every two minutes.

Flight plan parsing failed; only flown route is shown


Map Options




Map Legend


Flown Route
Filed Route
Departure Airport
Arrival Airport
Navaid (VOR, NDB)
Fix

Horizontal Profiles

Position Reports

Time Latitude Longitude Heading Altitude Ground
Speed
04-Aug-18 17:22 36.897141 -76.201227 226 28ft 0kts
04-Aug-18 17:23 36.897141 -76.201227 226 28ft 0kts
04-Aug-18 17:24 36.897141 -76.201227 226 28ft 0kts
04-Aug-18 17:25 36.897141 -76.201227 226 28ft 0kts
04-Aug-18 17:26 36.897141 -76.201227 226 28ft 0kts
04-Aug-18 17:27 36.897141 -76.201227 226 28ft 0kts
04-Aug-18 17:28 36.897141 -76.201227 226 28ft 0kts
04-Aug-18 17:29 36.897141 -76.201227 226 28ft 0kts
04-Aug-18 17:30 36.897141 -76.201227 226 28ft 0kts
04-Aug-18 17:31 36.897141 -76.201227 226 28ft 0kts
04-Aug-18 17:32 36.897138 -76.201231 226 28ft 0kts
04-Aug-18 17:33 36.897349 -76.200968 210 28ft 2kts
04-Aug-18 17:34 36.897788 -76.201104 118 28ft 2kts
04-Aug-18 17:35 36.897813 -76.201169 112 28ft 0kts
04-Aug-18 17:36 36.897802 -76.201135 112 28ft 1kts
04-Aug-18 17:37 36.897226 -76.199882 161 28ft 8kts
04-Aug-18 17:38 36.894457 -76.202222 216 28ft 16kts
04-Aug-18 17:39 36.889964 -76.206151 216 28ft 23kts
04-Aug-18 17:40 36.886754 -76.208963 177 28ft 0kts
04-Aug-18 17:41 36.886754 -76.208963 177 28ft 0kts
04-Aug-18 17:42 36.886754 -76.208963 177 28ft 0kts
04-Aug-18 17:43 36.886754 -76.208963 177 28ft 0kts
04-Aug-18 17:44 36.886754 -76.208963 177 28ft 0kts
04-Aug-18 17:45 36.886755 -76.208963 177 28ft 0kts
04-Aug-18 17:46 36.886280 -76.207994 60 28ft 12kts
04-Aug-18 17:47 36.916420 -76.179301 35 1970ft 173kts
04-Aug-18 17:48 36.965250 -76.150101 354 4366ft 234kts
04-Aug-18 17:49 37.007479 -76.214727 276 7559ft 277kts
04-Aug-18 17:50 36.981246 -76.303448 241 10542ft 287kts
04-Aug-18 17:51 36.941751 -76.395792 244 12985ft 332kts
04-Aug-18 17:52 36.900031 -76.505138 245 15928ft 356kts
04-Aug-18 17:53 36.858443 -76.618265 246 18830ft 368kts
04-Aug-18 17:54 36.815521 -76.736159 245 21332ft 381kts
04-Aug-18 17:55 36.771121 -76.857763 245 23459ft 392kts
04-Aug-18 17:56 36.725294 -76.981923 245 25359ft 400kts
04-Aug-18 17:57 36.673125 -77.103439 240 26867ft 410kts
04-Aug-18 17:58 36.614529 -77.226673 240 28205ft 419kts
04-Aug-18 17:59 36.555510 -77.352421 240 29403ft 427kts
04-Aug-18 18:00 36.495686 -77.480261 240 30591ft 430kts
04-Aug-18 18:01 36.435502 -77.608353 240 31574ft 434kts
04-Aug-18 18:02 36.376585 -77.733838 240 32350ft 437kts
04-Aug-18 18:03 36.314662 -77.865234 239 33129ft 439kts
04-Aug-18 18:04 36.253324 -77.993899 239 33800ft 440kts
04-Aug-18 18:05 36.191103 -78.124482 239 34234ft 442kts
04-Aug-18 18:06 36.128649 -78.254830 239 34251ft 447kts
04-Aug-18 18:07 36.065218 -78.386594 239 34254ft 447kts
04-Aug-18 18:08 36.001666 -78.518086 239 34244ft 448kts
04-Aug-18 18:09 35.938769 -78.647706 239 34235ft 449kts
04-Aug-18 18:10 35.883589 -78.761458 239 34231ft 449kts
04-Aug-18 18:11 35.822977 -78.889198 241 34229ft 449kts
04-Aug-18 18:12 35.764978 -79.017772 240 34227ft 447kts
04-Aug-18 18:13 35.706119 -79.144211 240 34226ft 441kts
04-Aug-18 18:14 35.646532 -79.272234 240 34232ft 438kts
04-Aug-18 18:15 35.586958 -79.400322 240 34240ft 439kts
04-Aug-18 18:16 35.526808 -79.529164 240 34244ft 439kts
04-Aug-18 18:17 35.467524 -79.655664 239 34241ft 439kts
04-Aug-18 18:18 35.408336 -79.782603 239 34253ft 439kts
04-Aug-18 18:19 35.348610 -79.909819 239 34277ft 439kts
04-Aug-18 18:20 35.287830 -80.037920 239 34259ft 439kts
04-Aug-18 18:21 35.226899 -80.165967 239 34240ft 439kts
04-Aug-18 18:22 35.166703 -80.292104 239 34223ft 439kts
04-Aug-18 18:23 35.108440 -80.413716 239 34224ft 439kts
04-Aug-18 18:24 35.048582 -80.538130 239 34221ft 439kts
04-Aug-18 18:25 34.989143 -80.661311 238 34226ft 446kts
04-Aug-18 18:26 34.929263 -80.786057 238 34239ft 456kts
04-Aug-18 18:27 34.867307 -80.912967 238 34250ft 464kts
04-Aug-18 18:28 34.802967 -81.042828 239 34243ft 460kts
04-Aug-18 18:29 34.740614 -81.170260 239 34248ft 453kts
04-Aug-18 18:30 34.676247 -81.300800 239 34242ft 454kts
04-Aug-18 18:31 34.614940 -81.425054 239 34243ft 454kts
04-Aug-18 18:32 34.552635 -81.550974 239 34243ft 453kts
04-Aug-18 18:33 34.488314 -81.680563 239 34243ft 454kts
04-Aug-18 18:34 34.423571 -81.811634 239 34242ft 453kts
04-Aug-18 18:35 34.359702 -81.939536 238 34237ft 454kts
04-Aug-18 18:36 34.295361 -82.067368 238 34234ft 454kts
04-Aug-18 18:37 34.249331 -82.211423 265 34244ft 455kts
04-Aug-18 18:38 34.254671 -82.363741 274 34236ft 456kts
04-Aug-18 18:39 34.263126 -82.515998 272 33677ft 456kts
04-Aug-18 18:40 34.267584 -82.664530 270 31650ft 435kts
04-Aug-18 18:41 34.271240 -82.807009 270 29655ft 421kts
04-Aug-18 18:42 34.274841 -82.945898 270 27649ft 407kts
04-Aug-18 18:43 34.277967 -83.068455 270 25812ft 394kts
04-Aug-18 18:44 34.281124 -83.198419 270 23810ft 384kts
04-Aug-18 18:45 34.284042 -83.324493 270 21895ft 374kts
04-Aug-18 18:46 34.286769 -83.448297 270 20085ft 365kts
04-Aug-18 18:47 34.289277 -83.569183 270 18272ft 356kts
04-Aug-18 18:48 34.250259 -83.670987 226 16689ft 346kts
04-Aug-18 18:49 34.181239 -83.745262 220 15408ft 327kts
04-Aug-18 18:50 34.113523 -83.815767 221 14228ft 325kts
04-Aug-18 18:51 34.050668 -83.883157 222 14013ft 298kts
04-Aug-18 18:52 33.984557 -83.954026 221 14004ft 335kts
04-Aug-18 18:53 33.908258 -84.014878 210 13999ft 336kts
04-Aug-18 18:54 33.828085 -84.070212 211 14000ft 336kts
04-Aug-18 18:55 33.751718 -84.129593 229 13618ft 341kts
04-Aug-18 18:56 33.730178 -84.233390 271 12212ft 330kts
04-Aug-18 18:57 33.733547 -84.336535 269 11077ft 324kts
04-Aug-18 18:58 33.732635 -84.441336 269 9881ft 309kts
04-Aug-18 18:59 33.732760 -84.538842 270 8627ft 281kts
04-Aug-18 19:00 33.732552 -84.630061 270 7436ft 276kts
04-Aug-18 19:01 33.701322 -84.703392 199 6288ft 281kts
04-Aug-18 19:02 33.644770 -84.661540 95 4889ft 266kts
04-Aug-18 19:03 33.648986 -84.578430 86 3307ft 234kts
04-Aug-18 19:04 33.649469 -84.520161 89 2505ft 193kts
04-Aug-18 19:05 33.649556 -84.469369 89 1513ft 120kts
04-Aug-18 19:06 33.649484 -84.431521 87 1031ft 95kts
04-Aug-18 19:07 33.648467 -84.422339 182 1031ft 10kts
04-Aug-18 19:08 33.645419 -84.423454 271 1031ft 13kts
04-Aug-18 19:09 33.644086 -84.428028 190 1031ft 17kts
04-Aug-18 19:10 33.641484 -84.428212 268 1031ft 4kts
04-Aug-18 19:11 33.641505 -84.428809 281 1031ft 0kts

Navigation Log

Ident Type
Flight plan parsing failed, navigation log unavailable